createdAt,value
2022-08-17T00:02:07.609Z,24.89
2022-08-17T00:04:50.847Z,24.79
2022-08-17T00:07:17.192Z,24.72
2022-08-17T00:09:43.677Z,24.55
2022-08-17T00:12:43.514Z,24.66
2022-08-17T00:14:56.388Z,24.81
2022-08-17T00:17:22.779Z,24.89
2022-08-17T00:19:49.103Z,24.67
2022-08-17T00:22:34.789Z,24.76
2022-08-17T00:25:07.038Z,24.85
2022-08-17T00:27:33.757Z,24.87
2022-08-17T00:30:00.255Z,24.94
2022-08-17T00:33:14.905Z,24.85
2022-08-17T00:35:16.046Z,24.71
2022-08-17T00:37:42.483Z,24.63
2022-08-17T00:40:11.704Z,24.70
2022-08-17T00:42:38.943Z,24.65
2022-08-17T00:45:07.534Z,24.61
2022-08-17T00:47:34.310Z,24.58
2022-08-17T00:50:00.886Z,24.46
2022-08-17T00:52:35.635Z,24.33
2022-08-17T00:55:03.027Z,24.20
2022-08-17T00:57:32.870Z,24.26
2022-08-17T01:00:18.659Z,23.99
2022-08-17T01:02:47.700Z,24.13
2022-08-17T01:05:23.633Z,24.22
2022-08-17T01:07:52.342Z,24.36
2022-08-17T01:10:59.577Z,24.26
2022-08-17T01:13:12.934Z,24.30
2022-08-17T01:15:46.133Z,24.26
2022-08-17T01:18:13.552Z,24.28
2022-08-17T01:20:48.504Z,24.31
2022-08-17T01:23:18.567Z,24.41
2022-08-17T01:25:50.920Z,24.39
2022-08-17T01:28:33.546Z,24.38
2022-08-17T01:31:06.859Z,24.22
2022-08-17T01:33:33.382Z,24.06
2022-08-17T01:36:00.617Z,24.17
2022-08-17T01:38:31.519Z,24.22
2022-08-17T01:41:06.254Z,24.32
2022-08-17T01:43:43.375Z,24.31
2022-08-17T01:46:16.919Z,24.23
2022-08-17T01:48:47.166Z,24.21
2022-08-17T01:51:15.486Z,24.31
2022-08-17T01:53:47.212Z,24.28
2022-08-17T01:56:17.056Z,24.32
2022-08-17T01:58:43.726Z,24.18
2022-08-17T02:01:14.564Z,24.25
2022-08-17T02:03:41.983Z,24.24
2022-08-17T02:06:27.510Z,24.02
2022-08-17T02:09:01.598Z,23.95
2022-08-17T02:11:28.653Z,23.95
2022-08-17T02:14:33.385Z,23.82
2022-08-17T02:16:59.809Z,24.01
2022-08-17T02:19:26.218Z,24.00
2022-08-17T02:21:54.237Z,24.08
2022-08-17T02:25:01.150Z,23.92
2022-08-17T02:27:17.883Z,24.01
2022-08-17T02:29:44.291Z,24.07
2022-08-17T02:32:28.114Z,24.07
2022-08-17T02:34:56.428Z,24.09
2022-08-17T02:37:22.775Z,24.08
2022-08-17T02:39:49.165Z,24.17
2022-08-17T02:42:15.633Z,24.20
2022-08-17T02:44:42.067Z,24.29
2022-08-17T02:47:09.937Z,24.33
2022-08-17T02:49:37.240Z,24.27
2022-08-17T02:52:07.937Z,24.23
2022-08-17T02:54:41.727Z,24.25
2022-08-17T02:57:09.948Z,24.20
2022-08-17T02:59:36.959Z,24.29
2022-08-17T03:02:04.615Z,24.29
2022-08-17T03:04:31.611Z,24.30
2022-08-17T03:07:01.700Z,24.31
2022-08-17T03:09:28.019Z,24.35
2022-08-17T03:11:55.893Z,24.23
2022-08-17T03:14:25.969Z,24.30
2022-08-17T03:16:52.803Z,24.38
2022-08-17T03:19:19.169Z,24.42
2022-08-17T03:21:45.501Z,24.46
2022-08-17T03:24:11.853Z,24.46
2022-08-17T03:26:38.211Z,24.21
2022-08-17T03:29:04.547Z,24.30
2022-08-17T03:31:31.393Z,24.18
2022-08-17T03:33:57.985Z,24.14
2022-08-17T03:36:25.244Z,24.18
2022-08-17T03:38:51.616Z,24.20
2022-08-17T03:41:17.991Z,24.27
2022-08-17T03:43:44.303Z,24.32
2022-08-17T03:46:35.188Z,24.35
2022-08-17T03:49:25.136Z,24.32
2022-08-17T03:52:11.093Z,24.33
2022-08-17T03:54:56.116Z,24.34
2022-08-17T03:57:22.594Z,24.32
2022-08-17T03:59:49.425Z,24.18
2022-08-17T04:02:18.286Z,23.90
2022-08-17T04:04:44.635Z,23.73
2022-08-17T04:07:11.001Z,23.71
2022-08-17T04:09:37.378Z,23.20
2022-08-17T04:12:05.232Z,22.77
2022-08-17T04:14:36.283Z,22.61
2022-08-17T04:17:19.502Z,22.52
2022-08-17T04:19:46.574Z,22.57
2022-08-17T04:22:32.508Z,22.22
2022-08-17T04:25:00.131Z,22.22
2022-08-17T04:27:27.037Z,22.22
2022-08-17T04:29:55.272Z,22.21
2022-08-17T04:33:04.503Z,22.18
2022-08-17T04:35:09.496Z,22.27
2022-08-17T04:37:35.808Z,22.05
2022-08-17T04:40:22.756Z,21.93
2022-08-17T04:43:07.638Z,21.82
2022-08-17T04:45:34.487Z,21.88
2022-08-17T04:48:01.063Z,22.00
2022-08-17T04:50:27.733Z,22.12
2022-08-17T04:52:54.207Z,22.15
2022-08-17T04:55:20.980Z,22.21
2022-08-17T04:57:50.492Z,22.25
2022-08-17T05:00:16.927Z,22.39
2022-08-17T05:02:50.980Z,22.63
2022-08-17T05:05:19.715Z,22.81
2022-08-17T05:07:47.807Z,22.79
2022-08-17T05:10:14.164Z,22.89
2022-08-17T05:12:40.529Z,23.02
2022-08-17T05:15:11.776Z,23.12
2022-08-17T05:17:38.120Z,23.20
2022-08-17T05:20:05.153Z,23.02
2022-08-17T05:22:31.509Z,22.80
2022-08-17T05:24:57.837Z,22.64
2022-08-17T05:27:24.261Z,22.58
2022-08-17T05:29:54.239Z,22.66
2022-08-17T05:32:38.185Z,22.52
2022-08-17T05:35:07.418Z,22.39
2022-08-17T05:37:33.812Z,22.40
2022-08-17T05:40:00.276Z,22.51
2022-08-17T05:42:26.737Z,22.63
2022-08-17T05:44:56.455Z,22.63
2022-08-17T05:47:24.807Z,22.77
2022-08-17T05:49:51.142Z,23.00
2022-08-17T05:52:54.814Z,23.43
2022-08-17T05:55:32.081Z,23.51
2022-08-17T05:58:36.055Z,23.43
2022-08-17T06:01:18.175Z,23.42
2022-08-17T06:04:15.601Z,23.37
2022-08-17T06:06:49.703Z,23.64
2022-08-17T06:09:30.156Z,23.39
2022-08-17T06:12:14.450Z,23.16
2022-08-17T06:15:09.429Z,23.28
2022-08-17T06:17:37.354Z,23.37
2022-08-17T06:20:13.011Z,23.41
2022-08-17T06:22:45.877Z,23.07
2022-08-17T06:25:36.412Z,22.98
2022-08-17T06:28:07.615Z,22.91
2022-08-17T06:31:00.303Z,23.09
2022-08-17T06:33:34.122Z,23.31
2022-08-17T06:36:15.885Z,23.51
2022-08-17T06:39:10.408Z,23.96
2022-08-17T06:41:56.508Z,23.89
2022-08-17T06:44:42.143Z,23.91
2022-08-17T06:47:29.268Z,24.04
2022-08-17T06:50:07.849Z,24.23
2022-08-17T06:52:46.790Z,24.50
2022-08-17T06:55:26.193Z,24.75
2022-08-17T06:57:59.659Z,24.93
2022-08-17T07:00:35.529Z,25.05
2022-08-17T07:03:08.381Z,25.06
2022-08-17T07:05:49.456Z,25.10
2022-08-17T07:08:35.128Z,25.21
2022-08-17T07:11:06.531Z,25.14
2022-08-17T07:13:51.785Z,25.34
2022-08-17T07:16:30.891Z,25.47
2022-08-17T07:18:58.833Z,25.59
2022-08-17T07:21:39.017Z,25.61
2022-08-17T07:24:30.399Z,25.51
2022-08-17T07:27:27.413Z,25.44
2022-08-17T07:30:10.932Z,25.59
2022-08-17T07:32:58.367Z,25.53
2022-08-17T07:35:41.246Z,25.58
2022-08-17T07:38:28.244Z,25.71
2022-08-17T07:40:57.912Z,25.81
2022-08-17T07:43:50.826Z,25.63
2022-08-17T07:46:41.925Z,25.62
2022-08-17T07:49:12.430Z,25.65
2022-08-17T07:51:45.528Z,25.66
2022-08-17T07:54:15.151Z,25.64
2022-08-17T07:56:52.493Z,25.71
2022-08-17T07:59:43.286Z,25.67
2022-08-17T08:02:38.153Z,25.38
2022-08-17T08:05:12.844Z,25.64
2022-08-17T08:07:49.525Z,25.77
2022-08-17T08:10:42.771Z,25.85
2022-08-17T08:13:28.684Z,25.69
2022-08-17T08:16:16.518Z,25.79
2022-08-17T08:18:55.429Z,25.92
2022-08-17T08:22:11.282Z,26.23
2022-08-17T08:24:51.329Z,26.16
2022-08-17T08:27:43.601Z,26.11
2022-08-17T08:30:16.724Z,26.08
2022-08-17T08:32:57.235Z,26.30
2022-08-17T08:35:53.514Z,26.46
2022-08-17T08:38:33.471Z,26.60
2022-08-17T08:41:26.311Z,26.66
2022-08-17T08:44:13.495Z,26.43
2022-08-17T08:46:57.621Z,26.49
2022-08-17T08:50:03.374Z,26.75
2022-08-17T08:52:55.313Z,26.97
2022-08-17T08:55:38.115Z,26.82
2022-08-17T08:58:32.303Z,27.03
2022-08-17T09:01:16.973Z,27.09
2022-08-17T09:03:53.788Z,27.10
2022-08-17T09:06:39.000Z,27.08
2022-08-17T09:09:31.412Z,27.16
2022-08-17T09:12:13.665Z,27.25
2022-08-17T09:14:48.933Z,27.24
2022-08-17T09:17:21.146Z,27.18
2022-08-17T09:20:01.022Z,27.32
2022-08-17T09:22:37.029Z,27.48
2022-08-17T09:25:10.458Z,27.66
2022-08-17T09:28:06.446Z,27.69
2022-08-17T09:30:41.252Z,27.62
2022-08-17T09:33:11.486Z,27.43
2022-08-17T09:36:02.782Z,27.29
2022-08-17T09:38:53.718Z,27.31
2022-08-17T09:41:49.486Z,27.58
2022-08-17T09:45:00.848Z,27.78
2022-08-17T09:47:53.662Z,27.84
2022-08-17T09:51:04.094Z,27.41
2022-08-17T09:53:15.099Z,27.51
2022-08-17T09:56:05.276Z,27.54
2022-08-17T09:59:03.228Z,27.92
2022-08-17T10:01:37.924Z,28.14
2022-08-17T10:04:29.531Z,28.35
2022-08-17T10:07:15.157Z,28.04
2022-08-17T10:09:53.192Z,28.15
2022-08-17T10:12:48.472Z,28.15
2022-08-17T10:15:25.648Z,28.05
2022-08-17T10:18:37.701Z,28.45
2022-08-17T10:21:36.771Z,28.65
2022-08-17T10:24:40.675Z,28.79
2022-08-17T10:27:44.893Z,28.78
2022-08-17T10:30:15.567Z,28.89
2022-08-17T10:33:20.315Z,28.93
2022-08-17T10:36:29.843Z,28.91
2022-08-17T10:39:19.725Z,29.09
2022-08-17T10:41:52.523Z,29.23
2022-08-17T10:44:50.367Z,29.21
2022-08-17T10:47:18.719Z,29.29
2022-08-17T10:49:49.469Z,29.39
2022-08-17T10:52:27.692Z,29.50
2022-08-17T10:54:58.390Z,29.54
2022-08-17T10:57:38.813Z,29.65
2022-08-17T11:00:40.136Z,29.63
2022-08-17T11:03:21.087Z,29.64
2022-08-17T11:05:59.737Z,29.75
2022-08-17T11:08:40.722Z,29.86
2022-08-17T11:11:25.555Z,29.90
2022-08-17T11:14:11.173Z,29.94
2022-08-17T11:16:57.392Z,29.99
2022-08-17T11:19:47.735Z,30.12
2022-08-17T11:22:33.907Z,30.15
2022-08-17T11:25:21.260Z,30.24
2022-08-17T11:27:53.475Z,30.20
2022-08-17T11:30:41.600Z,30.40
2022-08-17T11:33:29.022Z,30.53
2022-08-17T11:36:03.954Z,30.60
2022-08-17T11:38:46.109Z,30.39
2022-08-17T11:41:30.365Z,30.54
2022-08-17T11:43:56.699Z,30.74
2022-08-17T11:47:28.398Z,30.71
2022-08-17T11:50:46.957Z,30.87
2022-08-17T11:54:14.605Z,30.96
2022-08-17T11:56:50.130Z,30.90
2022-08-17T11:59:32.608Z,30.96
2022-08-17T12:02:01.401Z,31.04
2022-08-17T12:04:33.739Z,30.90
2022-08-17T12:07:21.095Z,30.99
2022-08-17T12:09:50.767Z,30.93
2022-08-17T12:12:22.692Z,30.92
2022-08-17T12:15:11.075Z,31.12
2022-08-17T12:17:41.585Z,31.09
2022-08-17T12:20:33.903Z,31.24
2022-08-17T12:23:14.456Z,31.52
2022-08-17T12:25:55.192Z,31.35
2022-08-17T12:29:43.960Z,31.58
2022-08-17T12:32:17.588Z,31.73
2022-08-17T12:34:46.428Z,31.77
2022-08-17T12:37:27.366Z,31.70
2022-08-17T12:39:58.589Z,31.78
2022-08-17T12:42:32.065Z,31.57
2022-08-17T12:44:58.759Z,31.46
2022-08-17T12:47:25.177Z,31.54
2022-08-17T12:50:08.211Z,31.66
2022-08-17T12:52:59.676Z,31.72
2022-08-17T12:55:33.758Z,31.75
2022-08-17T12:58:01.840Z,31.58
2022-08-17T13:00:28.654Z,31.71
2022-08-17T13:02:54.948Z,31.71
2022-08-17T13:05:34.893Z,31.55
2022-08-17T13:08:04.380Z,31.55
2022-08-17T13:10:35.810Z,31.45
2022-08-17T13:13:21.252Z,31.35
2022-08-17T13:16:06.560Z,31.57
2022-08-17T13:18:52.429Z,31.49
2022-08-17T13:21:18.799Z,31.60
2022-08-17T13:24:06.892Z,31.66
2022-08-17T13:26:45.489Z,31.91
2022-08-17T13:29:39.015Z,32.04
2022-08-17T13:32:13.462Z,32.09
2022-08-17T13:35:12.325Z,32.10
2022-08-17T13:37:35.793Z,31.84
2022-08-17T13:40:08.122Z,31.83
2022-08-17T13:42:48.081Z,31.84
2022-08-17T13:45:36.203Z,31.92
2022-08-17T13:48:14.137Z,32.04
2022-08-17T13:51:06.521Z,32.07
2022-08-17T13:53:54.840Z,32.12
2022-08-17T13:56:37.950Z,32.10
2022-08-17T13:59:53.275Z,32.06
2022-08-17T14:02:13.407Z,32.12
2022-08-17T14:04:41.955Z,32.17
2022-08-17T14:07:15.820Z,32.03
2022-08-17T14:09:51.699Z,32.20
2022-08-17T14:12:27.007Z,32.17
2022-08-17T14:14:56.223Z,31.81
2022-08-17T14:17:24.441Z,31.91
2022-08-17T14:19:51.208Z,31.78
2022-08-17T14:22:32.790Z,31.85
2022-08-17T14:25:01.449Z,31.62
2022-08-17T14:27:31.680Z,31.68
2022-08-17T14:29:58.339Z,31.62
2022-08-17T14:32:36.174Z,31.13
2022-08-17T14:35:05.009Z,31.30
2022-08-17T14:37:32.162Z,31.08
2022-08-17T14:40:02.302Z,31.09
2022-08-17T14:42:32.864Z,31.14
2022-08-17T14:44:59.789Z,30.87
2022-08-17T14:47:29.041Z,30.84
2022-08-17T14:49:55.393Z,30.96
2022-08-17T14:52:22.141Z,31.28
2022-08-17T14:54:51.155Z,31.27
2022-08-17T14:57:25.132Z,31.04
2022-08-17T15:00:01.038Z,30.97
2022-08-17T15:02:30.158Z,30.93
2022-08-17T15:05:03.599Z,31.18
2022-08-17T15:07:30.478Z,31.34
2022-08-17T15:09:58.519Z,31.50
2022-08-17T15:12:32.058Z,31.50
2022-08-17T15:15:00.494Z,31.61
2022-08-17T15:17:27.021Z,31.43
2022-08-17T15:20:18.768Z,31.60
2022-08-17T15:22:49.470Z,31.62
2022-08-17T15:25:16.856Z,31.68
2022-08-17T15:27:43.880Z,31.39
2022-08-17T15:30:10.910Z,30.97
2022-08-17T15:32:40.440Z,30.86
2022-08-17T15:35:11.637Z,30.73
2022-08-17T15:37:40.083Z,30.64
2022-08-17T15:40:08.516Z,30.63
2022-08-17T15:42:35.407Z,30.57
2022-08-17T15:45:09.290Z,30.59
2022-08-17T15:47:36.807Z,30.74
2022-08-17T15:50:08.636Z,30.90
2022-08-17T15:52:40.352Z,30.88
2022-08-17T15:55:10.135Z,30.81
2022-08-17T15:57:36.699Z,30.69
2022-08-17T16:00:05.421Z,30.87
2022-08-17T16:03:13.848Z,31.08
2022-08-17T16:05:24.836Z,31.18
2022-08-17T16:07:52.481Z,30.91
2022-08-17T16:10:19.626Z,30.67
2022-08-17T16:12:47.570Z,30.78
2022-08-17T16:15:14.565Z,30.90
2022-08-17T16:17:41.441Z,30.90
2022-08-17T16:20:10.379Z,30.73
2022-08-17T16:22:49.144Z,30.83
2022-08-17T16:25:21.424Z,30.85
2022-08-17T16:27:53.275Z,30.68
2022-08-17T16:30:22.880Z,30.91
2022-08-17T16:32:51.618Z,30.98
2022-08-17T16:35:21.117Z,30.70
2022-08-17T16:37:48.389Z,30.83
2022-08-17T16:40:16.559Z,30.71
2022-08-17T16:42:43.253Z,30.57
2022-08-17T16:45:12.903Z,30.33
2022-08-17T16:47:40.126Z,30.47
2022-08-17T16:50:07.994Z,30.66
2022-08-17T16:52:34.839Z,30.56
2022-08-17T16:55:02.739Z,30.68
2022-08-17T16:57:29.917Z,30.67
2022-08-17T16:59:56.571Z,30.56
2022-08-17T17:02:33.685Z,30.54
2022-08-17T17:05:19.133Z,30.14
2022-08-17T17:08:09.543Z,29.83
2022-08-17T17:10:42.559Z,29.64
2022-08-17T17:13:40.434Z,29.47
2022-08-17T17:16:21.494Z,29.29
2022-08-17T17:19:04.705Z,29.07
2022-08-17T17:21:38.949Z,28.88
2022-08-17T17:24:13.860Z,28.71
2022-08-17T17:27:00.346Z,28.39
2022-08-17T17:29:47.907Z,28.07
2022-08-17T17:32:35.740Z,27.88
2022-08-17T17:35:16.972Z,27.88
2022-08-17T17:37:46.369Z,27.84
2022-08-17T17:40:41.698Z,27.59
2022-08-17T17:43:36.930Z,27.49
2022-08-17T17:46:28.591Z,27.35
2022-08-17T17:48:57.495Z,27.31
2022-08-17T17:52:08.551Z,27.16
2022-08-17T17:54:46.287Z,27.15
2022-08-17T17:57:31.606Z,27.19
2022-08-17T18:00:25.458Z,27.05
2022-08-17T18:02:58.626Z,27.22
2022-08-17T18:05:34.253Z,27.10
2022-08-17T18:08:10.768Z,27.36
2022-08-17T18:11:00.432Z,27.51
2022-08-17T18:14:00.390Z,27.61
2022-08-17T18:16:29.543Z,27.61
2022-08-17T18:18:59.681Z,27.56
2022-08-17T18:21:35.335Z,27.52
2022-08-17T18:24:04.406Z,27.36
2022-08-17T18:26:36.435Z,27.29
2022-08-17T18:29:24.749Z,27.40
2022-08-17T18:32:23.059Z,27.18
2022-08-17T18:34:53.574Z,27.26
2022-08-17T18:37:31.877Z,27.28
2022-08-17T18:39:58.301Z,27.12
2022-08-17T18:42:27.158Z,27.14
2022-08-17T18:44:55.508Z,26.94
2022-08-17T18:47:25.733Z,27.11
2022-08-17T18:49:57.705Z,27.21
2022-08-17T18:52:28.641Z,27.26
2022-08-17T18:55:22.891Z,27.22
2022-08-17T18:57:53.156Z,27.32
2022-08-17T19:00:40.346Z,27.27
2022-08-17T19:03:15.957Z,27.10
2022-08-17T19:05:45.669Z,27.23
2022-08-17T19:08:30.428Z,27.29
2022-08-17T19:11:10.037Z,27.33
2022-08-17T19:13:57.799Z,27.19
2022-08-17T19:16:31.898Z,27.20
2022-08-17T19:19:18.904Z,26.61
2022-08-17T19:21:53.695Z,26.11
2022-08-17T19:24:23.302Z,25.58
2022-08-17T19:26:56.814Z,25.52
2022-08-17T19:29:56.710Z,25.56
2022-08-17T19:32:28.142Z,25.79
2022-08-17T19:34:55.947Z,25.01
2022-08-17T19:37:56.803Z,24.41
2022-08-17T19:40:53.575Z,24.27
2022-08-17T19:43:28.986Z,23.42
2022-08-17T19:46:18.188Z,23.19
2022-08-17T19:49:10.567Z,23.48
2022-08-17T19:51:46.802Z,23.01
2022-08-17T19:54:22.450Z,22.94
2022-08-17T19:57:36.888Z,22.39
2022-08-17T20:00:12.320Z,22.45
2022-08-17T20:02:46.880Z,22.69
2022-08-17T20:06:12.107Z,22.58
2022-08-17T20:08:41.309Z,21.41
2022-08-17T20:11:14.982Z,21.10
2022-08-17T20:13:49.690Z,20.95
2022-08-17T20:16:18.054Z,21.22
2022-08-17T20:19:01.292Z,21.42
2022-08-17T20:21:36.960Z,20.73
2022-08-17T20:24:26.659Z,20.15
2022-08-17T20:26:58.439Z,19.95
2022-08-17T20:29:39.655Z,19.60
2022-08-17T20:32:17.510Z,19.14
2022-08-17T20:34:47.108Z,19.36
2022-08-17T20:37:13.397Z,19.09
2022-08-17T20:40:08.022Z,19.21
2022-08-17T20:42:36.390Z,19.21
2022-08-17T20:45:25.880Z,19.23
2022-08-17T20:48:20.082Z,19.17
2022-08-17T20:50:52.529Z,19.03
2022-08-17T20:53:46.825Z,18.87
2022-08-17T20:56:44.280Z,18.91
2022-08-17T20:59:27.382Z,19.05
2022-08-17T21:02:18.304Z,19.19
2022-08-17T21:05:02.163Z,19.54
2022-08-17T21:07:41.117Z,19.82
2022-08-17T21:10:22.256Z,19.69
2022-08-17T21:13:14.038Z,19.77
2022-08-17T21:15:42.054Z,20.20
2022-08-17T21:18:23.399Z,20.28
2022-08-17T21:21:08.790Z,20.34
2022-08-17T21:23:51.156Z,20.39
2022-08-17T21:26:31.043Z,20.39
2022-08-17T21:29:32.593Z,20.18
2022-08-17T21:32:03.287Z,19.83
2022-08-17T21:34:35.664Z,19.54
2022-08-17T21:37:20.781Z,19.34
2022-08-17T21:39:52.656Z,19.40
2022-08-17T21:42:29.412Z,19.23
2022-08-17T21:45:00.378Z,19.11
2022-08-17T21:47:30.391Z,19.11
2022-08-17T21:50:18.613Z,19.19
2022-08-17T21:52:45.809Z,19.36
2022-08-17T21:55:34.059Z,19.33
2022-08-17T21:58:14.917Z,19.56
2022-08-17T22:00:44.226Z,19.70
2022-08-17T22:03:23.624Z,19.90
2022-08-17T22:05:51.152Z,20.03
2022-08-17T22:08:23.891Z,19.74
2022-08-17T22:10:59.338Z,19.48
2022-08-17T22:13:29.660Z,19.52
2022-08-17T22:16:28.803Z,19.58
2022-08-17T22:18:58.726Z,20.00
2022-08-17T22:21:26.080Z,20.39
2022-08-17T22:24:15.520Z,20.70
2022-08-17T22:27:04.539Z,20.84
2022-08-17T22:30:35.760Z,21.01
2022-08-17T22:33:42.417Z,20.91
2022-08-17T22:36:11.978Z,20.12
2022-08-17T22:38:40.695Z,19.59
2022-08-17T22:41:22.047Z,19.46
2022-08-17T22:43:48.884Z,19.47
2022-08-17T22:46:22.165Z,19.11
2022-08-17T22:48:52.388Z,19.09
2022-08-17T22:51:22.576Z,19.28
2022-08-17T22:54:14.986Z,19.47
2022-08-17T22:57:30.452Z,19.66
2022-08-17T22:59:57.541Z,19.91
2022-08-17T23:02:30.558Z,20.07
2022-08-17T23:05:09.967Z,20.12
2022-08-17T23:07:37.049Z,20.25
2022-08-17T23:10:06.367Z,20.46
2022-08-17T23:12:37.943Z,20.49
2022-08-17T23:15:05.512Z,20.22
2022-08-17T23:17:37.396Z,20.20
2022-08-17T23:20:08.155Z,20.51
2022-08-17T23:22:37.379Z,20.68
2022-08-17T23:25:22.243Z,20.84
2022-08-17T23:27:48.709Z,20.78
2022-08-17T23:30:15.406Z,20.57
2022-08-17T23:32:53.267Z,20.41
2022-08-17T23:35:20.885Z,20.37
2022-08-17T23:38:07.672Z,20.31
2022-08-17T23:40:34.438Z,20.33
2022-08-17T23:43:01.049Z,20.21
2022-08-17T23:45:32.532Z,19.82
2022-08-17T23:47:58.877Z,19.72
2022-08-17T23:50:25.243Z,19.94
2022-08-17T23:52:56.405Z,20.37
2022-08-17T23:55:22.755Z,20.60
2022-08-17T23:57:49.527Z,20.75
